createdAt,value
2022-12-04T00:00:32.593Z,25.10
2022-12-04T00:03:03.171Z,25.10
2022-12-04T00:05:33.756Z,25.09
2022-12-04T00:08:04.102Z,25.09
2022-12-04T00:10:36.830Z,25.09
2022-12-04T00:13:07.278Z,25.07
2022-12-04T00:15:38.026Z,25.08
2022-12-04T00:18:08.428Z,25.05
2022-12-04T00:20:43.311Z,25.05
2022-12-04T00:23:13.322Z,25.03
2022-12-04T00:25:49.008Z,25.00
2022-12-04T00:28:20.520Z,24.98
2022-12-04T00:30:51.024Z,24.95
2022-12-04T00:33:21.092Z,24.93
2022-12-04T00:35:51.178Z,24.92
2022-12-04T00:38:21.511Z,24.90
2022-12-04T00:40:55.641Z,24.89
2022-12-04T00:43:26.868Z,24.85
2022-12-04T00:45:57.909Z,24.84
2022-12-04T00:48:28.725Z,24.81
2022-12-04T00:50:59.465Z,24.80
2022-12-04T00:53:30.276Z,24.79
2022-12-04T00:56:06.804Z,24.79
2022-12-04T00:58:37.572Z,24.77
2022-12-04T01:01:11.494Z,24.77
2022-12-04T01:03:42.266Z,24.75
2022-12-04T01:06:23.118Z,24.76
2022-12-04T01:08:55.904Z,24.76
2022-12-04T01:11:29.773Z,24.75
2022-12-04T01:14:01.031Z,24.74
2022-12-04T01:16:35.077Z,24.74
2022-12-04T01:19:07.992Z,24.73
2022-12-04T01:21:39.811Z,24.73
2022-12-04T01:24:11.489Z,24.73
2022-12-04T01:26:43.977Z,24.73
2022-12-04T01:29:14.571Z,24.72
2022-12-04T01:31:44.751Z,24.72
2022-12-04T01:34:15.338Z,24.71
2022-12-04T01:36:45.361Z,24.70
2022-12-04T01:39:15.355Z,24.70
2022-12-04T01:41:47.512Z,24.70
2022-12-04T01:44:21.557Z,24.71
2022-12-04T01:46:56.568Z,24.71
2022-12-04T01:49:35.640Z,24.72
2022-12-04T01:52:12.396Z,24.72
2022-12-04T01:54:49.127Z,24.72
2022-12-04T01:57:23.348Z,24.72
2022-12-04T01:59:59.747Z,24.73
2022-12-04T02:02:36.995Z,24.72
2022-12-04T02:05:10.782Z,24.71
2022-12-04T02:07:43.914Z,24.71
2022-12-04T02:10:15.183Z,24.69
2022-12-04T02:13:04.077Z,24.68
2022-12-04T02:15:47.436Z,24.67
2022-12-04T02:18:32.929Z,24.66
2022-12-04T02:21:12.708Z,24.65
2022-12-04T02:24:34.797Z,24.62
2022-12-04T02:27:10.874Z,24.62
2022-12-04T02:29:52.483Z,24.63
2022-12-04T02:32:30.217Z,24.63
2022-12-04T02:35:06.350Z,24.62
2022-12-04T02:37:43.231Z,24.63
2022-12-04T02:40:23.474Z,24.63
2022-12-04T02:43:02.676Z,24.64
2022-12-04T02:45:43.547Z,24.63
2022-12-04T02:48:22.076Z,24.62
2022-12-04T02:50:58.648Z,24.61
2022-12-04T02:53:35.083Z,24.61
2022-12-04T02:56:12.336Z,24.61
2022-12-04T02:58:49.660Z,24.62
2022-12-04T03:01:28.842Z,24.61
2022-12-04T03:04:03.229Z,24.61
2022-12-04T03:06:39.124Z,24.61
2022-12-04T03:09:16.546Z,24.61
2022-12-04T03:11:55.191Z,24.60
2022-12-04T03:14:33.416Z,24.60
2022-12-04T03:17:12.470Z,24.59
2022-12-04T03:19:49.606Z,24.57
2022-12-04T03:22:24.487Z,24.57
2022-12-04T03:24:57.777Z,24.57
2022-12-04T03:27:37.705Z,24.57
2022-12-04T03:30:11.647Z,24.56
2022-12-04T03:32:52.010Z,24.54
2022-12-04T03:35:29.137Z,24.53
2022-12-04T03:38:06.663Z,24.54
2022-12-04T03:40:44.572Z,24.53
2022-12-04T03:43:22.891Z,24.52
2022-12-04T03:46:00.566Z,24.51
2022-12-04T03:48:43.339Z,24.49
2022-12-04T03:51:24.892Z,24.48
2022-12-04T03:54:04.488Z,24.48
2022-12-04T03:56:41.428Z,24.46
2022-12-04T03:59:18.717Z,24.46
2022-12-04T04:01:51.469Z,24.45
2022-12-04T04:04:32.406Z,24.45
2022-12-04T04:07:12.789Z,24.43
2022-12-04T04:09:50.512Z,24.41
2022-12-04T04:12:27.872Z,24.40
2022-12-04T04:15:22.417Z,24.38
2022-12-04T04:18:11.143Z,24.35
2022-12-04T04:21:06.592Z,24.33
2022-12-04T04:24:00.242Z,24.29
2022-12-04T04:26:38.763Z,24.28
2022-12-04T04:29:08.636Z,24.28
2022-12-04T04:31:46.766Z,24.28
2022-12-04T04:34:27.561Z,24.28
2022-12-04T04:37:11.195Z,24.28
2022-12-04T04:39:47.780Z,24.29
2022-12-04T04:42:26.801Z,24.30
2022-12-04T04:45:07.477Z,24.32
2022-12-04T04:47:46.071Z,24.32
2022-12-04T04:50:19.784Z,24.32
2022-12-04T04:52:58.629Z,24.32
2022-12-04T04:55:29.324Z,24.32
2022-12-04T04:58:10.933Z,24.33
2022-12-04T05:00:43.097Z,24.33
2022-12-04T05:03:13.711Z,24.34
2022-12-04T05:05:44.221Z,24.33
2022-12-04T05:08:16.520Z,24.35
2022-12-04T05:10:47.084Z,24.35
2022-12-04T05:13:18.370Z,24.37
2022-12-04T05:15:58.906Z,24.37
2022-12-04T05:18:29.912Z,24.38
2022-12-04T05:20:58.764Z,24.40
2022-12-04T05:23:31.132Z,24.40
2022-12-04T05:26:05.857Z,24.42
2022-12-04T05:28:36.433Z,24.43
2022-12-04T05:31:07.306Z,24.46
2022-12-04T05:33:37.835Z,24.48
2022-12-04T05:36:11.729Z,24.51
2022-12-04T05:38:44.549Z,24.55
2022-12-04T05:41:14.229Z,24.58
2022-12-04T05:43:44.633Z,24.62
2022-12-04T05:46:14.613Z,24.65
2022-12-04T05:48:44.538Z,24.69
2022-12-04T05:51:14.653Z,24.74
2022-12-04T05:53:47.607Z,24.77
2022-12-04T05:56:17.750Z,24.82
2022-12-04T05:58:48.383Z,24.89
2022-12-04T06:01:22.963Z,24.99
2022-12-04T06:03:53.783Z,25.13
2022-12-04T06:06:28.082Z,25.34
2022-12-04T06:09:02.543Z,25.58
2022-12-04T06:11:35.608Z,25.84
2022-12-04T06:14:07.838Z,26.11
2022-12-04T06:16:41.363Z,26.39
2022-12-04T06:19:18.018Z,26.68
2022-12-04T06:21:50.247Z,26.95
2022-12-04T06:24:25.114Z,27.24
2022-12-04T06:29:50.775Z,27.83
2022-12-04T06:32:22.032Z,28.10
2022-12-04T06:34:54.635Z,28.34
2022-12-04T06:37:27.993Z,28.59
2022-12-04T06:39:59.660Z,28.83
2022-12-04T06:42:29.869Z,29.06
2022-12-04T06:45:00.274Z,29.29
2022-12-04T06:47:30.757Z,29.51
2022-12-04T06:50:01.113Z,29.72
2022-12-04T06:52:31.411Z,29.93
2022-12-04T06:55:03.144Z,30.15
2022-12-04T06:57:33.051Z,30.36
2022-12-04T07:00:03.905Z,30.56
2022-12-04T07:02:34.358Z,30.76
2022-12-04T07:05:04.414Z,30.95
2022-12-04T07:07:34.686Z,31.14
2022-12-04T07:10:07.547Z,31.33
2022-12-04T07:12:37.559Z,31.49
2022-12-04T07:15:09.055Z,31.67
2022-12-04T07:17:39.246Z,31.83
2022-12-04T07:20:11.665Z,32.02
2022-12-04T07:22:42.416Z,32.19
2022-12-04T07:25:15.700Z,32.38
2022-12-04T07:27:46.060Z,32.57
2022-12-04T07:30:17.682Z,32.76
2022-12-04T07:32:48.075Z,32.92
2022-12-04T07:35:18.182Z,33.11
2022-12-04T07:37:49.023Z,33.27
2022-12-04T07:40:21.633Z,33.44
2022-12-04T07:42:51.843Z,33.62
2022-12-04T07:45:22.773Z,33.81
2022-12-04T07:47:52.985Z,33.98
2022-12-04T07:50:23.533Z,34.18
2022-12-04T07:52:53.595Z,34.38
2022-12-04T07:55:25.846Z,34.60
2022-12-04T07:57:55.769Z,34.81
2022-12-04T08:00:26.609Z,35.06
2022-12-04T08:02:57.148Z,35.32
2022-12-04T08:05:27.736Z,35.59
2022-12-04T08:07:58.385Z,35.85
2022-12-04T08:10:29.943Z,36.16
2022-12-04T08:13:00.376Z,36.46
2022-12-04T08:15:30.407Z,36.77
2022-12-04T08:18:01.100Z,37.10
2022-12-04T08:20:31.283Z,37.43
2022-12-04T08:23:01.787Z,37.76
2022-12-04T08:25:34.206Z,38.06
2022-12-04T08:28:04.162Z,38.37
2022-12-04T08:30:35.810Z,38.68
2022-12-04T08:33:06.425Z,39.01
2022-12-04T08:35:37.570Z,39.30
2022-12-04T08:38:08.522Z,39.42
2022-12-04T08:40:41.429Z,39.35
2022-12-04T08:43:11.854Z,39.10
2022-12-04T08:45:42.078Z,38.67
2022-12-04T08:48:12.466Z,38.26
2022-12-04T08:50:48.115Z,37.78
2022-12-04T08:53:18.722Z,37.40
2022-12-04T08:55:50.934Z,37.06
2022-12-04T08:58:22.300Z,36.76
2022-12-04T09:00:52.938Z,36.47
2022-12-04T09:03:30.553Z,36.19
2022-12-04T09:06:04.254Z,35.94
2022-12-04T09:08:35.727Z,35.70
2022-12-04T09:11:11.355Z,35.47
2022-12-04T09:13:42.669Z,35.25
2022-12-04T09:16:16.650Z,35.05
2022-12-04T09:18:47.750Z,34.88
2022-12-04T09:21:21.476Z,34.76
2022-12-04T09:23:52.109Z,34.66
2022-12-04T09:26:27.562Z,34.57
2022-12-04T09:29:00.482Z,34.51
2022-12-04T09:31:31.581Z,34.47
2022-12-04T09:34:02.086Z,34.36
2022-12-04T09:36:34.898Z,34.21
2022-12-04T09:39:05.465Z,34.07
2022-12-04T09:42:19.093Z,33.92
2022-12-04T09:44:55.875Z,33.72
2022-12-04T09:47:32.422Z,33.54
2022-12-04T09:50:12.447Z,33.36
2022-12-04T09:52:56.990Z,33.17
2022-12-04T09:55:31.458Z,32.99
2022-12-04T09:58:08.863Z,32.82
2022-12-04T10:00:44.439Z,32.67
2022-12-04T10:03:23.301Z,32.52
2022-12-04T10:06:10.001Z,32.34
2022-12-04T10:08:44.362Z,32.16
2022-12-04T10:11:22.159Z,32.01
2022-12-04T10:14:31.717Z,31.84
2022-12-04T10:17:33.009Z,31.70
2022-12-04T10:20:24.803Z,31.60
2022-12-04T10:23:14.693Z,31.49
2022-12-04T10:25:46.661Z,31.38
2022-12-04T10:28:27.937Z,31.26
2022-12-04T10:31:04.596Z,31.11
2022-12-04T10:33:43.929Z,30.99
2022-12-04T10:36:18.274Z,30.86
2022-12-04T10:38:55.700Z,30.75
2022-12-04T10:41:34.646Z,30.68
2022-12-04T10:44:05.354Z,30.63
2022-12-04T10:46:43.155Z,30.58
2022-12-04T10:49:23.466Z,30.50
2022-12-04T10:51:54.163Z,30.44
2022-12-04T10:54:32.640Z,30.40
2022-12-04T10:57:05.814Z,30.37
2022-12-04T10:59:37.458Z,30.30
2022-12-04T11:02:24.131Z,30.24
2022-12-04T11:04:58.996Z,30.16
2022-12-04T11:07:32.455Z,30.06
2022-12-04T11:10:07.245Z,29.96
2022-12-04T11:12:37.069Z,29.87
2022-12-04T11:15:28.268Z,29.79
2022-12-04T11:18:10.942Z,29.65
2022-12-04T11:20:46.715Z,29.54
2022-12-04T11:23:19.524Z,29.46
2022-12-04T11:25:53.664Z,29.42
2022-12-04T11:28:41.609Z,29.40
2022-12-04T11:31:21.057Z,29.37
2022-12-04T11:34:00.013Z,29.32
2022-12-04T11:36:34.982Z,29.31
2022-12-04T11:39:19.619Z,29.29
2022-12-04T11:41:50.243Z,29.23
2022-12-04T11:44:29.214Z,29.20
2022-12-04T11:47:04.520Z,29.16
2022-12-04T11:49:42.269Z,29.13
2022-12-04T11:52:32.822Z,29.12
2022-12-04T11:55:11.281Z,29.10
2022-12-04T11:57:53.954Z,29.10
2022-12-04T12:00:27.929Z,29.08
2022-12-04T12:03:20.378Z,29.04
2022-12-04T12:06:32.223Z,28.99
2022-12-04T12:09:22.501Z,28.96
2022-12-04T12:11:59.931Z,28.95
2022-12-04T12:14:43.110Z,28.92
2022-12-04T12:17:28.270Z,28.87
2022-12-04T12:20:16.194Z,28.84
2022-12-04T12:23:14.393Z,28.83
2022-12-04T12:25:58.945Z,28.82
2022-12-04T12:29:02.836Z,28.82
2022-12-04T12:31:58.998Z,28.80
2022-12-04T12:34:39.828Z,28.76
2022-12-04T12:37:24.616Z,28.72
2022-12-04T12:40:05.736Z,28.68
2022-12-04T12:42:47.450Z,28.63
2022-12-04T12:45:30.059Z,28.60
2022-12-04T12:48:11.588Z,28.59
2022-12-04T12:51:08.922Z,28.57
2022-12-04T12:53:48.262Z,28.55
2022-12-04T12:56:28.642Z,28.52
2022-12-04T12:59:05.849Z,28.48
2022-12-04T13:01:48.878Z,28.47
2022-12-04T13:04:31.888Z,28.45
2022-12-04T13:07:23.634Z,28.44
2022-12-04T13:10:05.045Z,28.43
2022-12-04T13:12:47.357Z,28.43
2022-12-04T13:15:22.130Z,28.42
2022-12-04T13:17:58.989Z,28.40
2022-12-04T13:20:36.552Z,28.38
2022-12-04T13:23:28.563Z,28.35
2022-12-04T13:26:10.218Z,28.33
2022-12-04T13:28:57.283Z,28.33
2022-12-04T13:31:40.831Z,28.31
2022-12-04T13:34:46.648Z,28.25
2022-12-04T13:37:50.609Z,28.19
2022-12-04T13:40:36.198Z,28.16
2022-12-04T13:43:30.466Z,28.12
2022-12-04T13:46:07.305Z,28.11
2022-12-04T13:48:42.461Z,28.10
2022-12-04T13:51:40.998Z,28.09
2022-12-04T13:54:31.448Z,28.06
2022-12-04T13:57:24.275Z,28.04
2022-12-04T14:00:07.805Z,28.03
2022-12-04T14:02:40.643Z,28.02
2022-12-04T14:05:14.573Z,28.00
2022-12-04T14:08:04.264Z,27.96
2022-12-04T14:10:42.089Z,27.95
2022-12-04T14:13:23.550Z,27.94
2022-12-04T14:16:08.259Z,27.93
2022-12-04T14:18:42.116Z,27.93
2022-12-04T14:21:13.153Z,27.92
2022-12-04T14:23:45.469Z,27.93
2022-12-04T14:26:55.974Z,27.93
2022-12-04T14:29:50.535Z,27.91
2022-12-04T14:32:26.756Z,27.90
2022-12-04T14:35:00.859Z,27.90
2022-12-04T14:37:38.570Z,27.88
2022-12-04T14:40:22.552Z,27.88
2022-12-04T14:42:55.016Z,27.88
2022-12-04T14:45:40.085Z,27.88
2022-12-04T14:48:35.477Z,27.88
2022-12-04T14:51:20.927Z,27.86
2022-12-04T14:54:02.326Z,27.86
2022-12-04T14:57:00.617Z,27.85
2022-12-04T14:59:44.708Z,27.84
2022-12-04T15:02:20.530Z,27.83
2022-12-04T15:04:53.206Z,27.83
2022-12-04T15:07:32.085Z,27.81
2022-12-04T15:10:32.705Z,27.80
2022-12-04T15:13:03.206Z,27.77
2022-12-04T15:15:34.447Z,27.75
2022-12-04T15:18:12.389Z,27.74
2022-12-04T15:20:56.336Z,27.72
2022-12-04T15:23:32.657Z,27.71
2022-12-04T15:26:09.902Z,27.71
2022-12-04T15:28:46.722Z,27.70
2022-12-04T15:31:27.138Z,27.69
2022-12-04T15:34:03.225Z,27.68
2022-12-04T15:36:46.144Z,27.66
2022-12-04T15:39:23.055Z,27.64
2022-12-04T15:41:53.849Z,27.62
2022-12-04T15:44:29.405Z,27.62
2022-12-04T15:47:03.004Z,27.62
2022-12-04T15:49:35.372Z,27.61
2022-12-04T15:52:17.781Z,27.59
2022-12-04T15:54:56.969Z,27.59
2022-12-04T15:57:32.865Z,27.57
2022-12-04T16:00:05.666Z,27.56
2022-12-04T16:02:42.427Z,27.56
2022-12-04T16:05:28.964Z,27.54
2022-12-04T16:08:02.552Z,27.53
2022-12-04T16:10:38.477Z,27.53
2022-12-04T16:13:09.360Z,27.53
2022-12-04T16:15:44.330Z,27.50
2022-12-04T16:18:17.407Z,27.48
2022-12-04T16:20:48.011Z,27.45
2022-12-04T16:23:19.103Z,27.41
2022-12-04T16:25:53.628Z,27.38
2022-12-04T16:28:24.082Z,27.35
2022-12-04T16:30:54.732Z,27.33
2022-12-04T16:33:25.321Z,27.30
2022-12-04T16:35:55.663Z,27.28
2022-12-04T16:38:26.180Z,27.25
2022-12-04T16:40:58.079Z,27.23
2022-12-04T16:43:27.959Z,27.21
2022-12-04T16:46:01.669Z,27.19
2022-12-04T16:48:35.128Z,27.16
2022-12-04T16:51:05.544Z,27.14
2022-12-04T16:53:36.142Z,27.12
2022-12-04T16:56:08.646Z,27.10
2022-12-04T16:58:39.097Z,27.09
2022-12-04T17:01:26.286Z,27.07
2022-12-04T17:03:57.124Z,27.04
2022-12-04T17:06:27.662Z,27.03
2022-12-04T17:08:58.053Z,27.00
2022-12-04T17:11:30.814Z,27.00
2022-12-04T17:14:03.227Z,26.98
2022-12-04T17:16:33.813Z,26.97
2022-12-04T17:19:04.456Z,26.96
2022-12-04T17:21:35.078Z,26.96
2022-12-04T17:24:05.506Z,26.95
2022-12-04T17:26:38.559Z,26.93
2022-12-04T17:29:09.028Z,26.90
2022-12-04T17:31:39.589Z,26.88
2022-12-04T17:34:09.907Z,26.84
2022-12-04T17:36:39.646Z,26.83
2022-12-04T17:39:12.064Z,26.81
2022-12-04T17:41:44.153Z,26.80
2022-12-04T17:44:14.071Z,26.80
2022-12-04T17:46:45.927Z,26.79
2022-12-04T17:49:16.050Z,26.76
2022-12-04T17:51:46.041Z,26.74
2022-12-04T17:54:16.861Z,26.74
2022-12-04T17:56:51.279Z,26.74
2022-12-04T17:59:24.784Z,26.73
2022-12-04T18:01:55.744Z,26.73
2022-12-04T18:04:26.319Z,26.75
2022-12-04T18:06:56.944Z,26.75
2022-12-04T18:09:27.343Z,26.75
2022-12-04T18:12:01.987Z,26.77
2022-12-04T18:14:35.518Z,26.77
2022-12-04T18:17:05.865Z,26.79
2022-12-04T18:19:36.410Z,26.79
2022-12-04T18:22:07.343Z,26.80
2022-12-04T18:24:37.924Z,26.81
2022-12-04T18:27:10.866Z,26.82
2022-12-04T18:29:42.690Z,26.82
2022-12-04T18:32:13.295Z,26.83
2022-12-04T18:34:44.013Z,26.82
2022-12-04T18:37:14.581Z,26.81
2022-12-04T18:39:44.804Z,26.82
2022-12-04T18:42:17.287Z,26.82
2022-12-04T18:44:49.028Z,26.80
2022-12-04T18:47:19.579Z,26.79
2022-12-04T18:49:49.646Z,26.77
2022-12-04T18:52:20.266Z,26.77
2022-12-04T18:54:50.515Z,26.74
2022-12-04T18:57:23.007Z,26.74
2022-12-04T18:59:53.589Z,26.70
2022-12-04T19:02:24.252Z,26.66
2022-12-04T19:04:56.713Z,26.61
2022-12-04T19:07:27.484Z,26.56
2022-12-04T19:10:13.522Z,26.54
2022-12-04T19:12:45.961Z,26.51
2022-12-04T19:15:16.462Z,26.49
2022-12-04T19:17:46.713Z,26.49
2022-12-04T19:20:18.569Z,26.50
2022-12-04T19:22:49.418Z,26.48
2022-12-04T19:25:20.158Z,26.50
2022-12-04T19:27:53.226Z,26.49
2022-12-04T19:30:23.943Z,26.48
2022-12-04T19:32:53.950Z,26.48
2022-12-04T19:35:23.968Z,26.47
2022-12-04T19:37:54.772Z,26.46
2022-12-04T19:40:25.974Z,26.45
2022-12-04T19:43:02.662Z,26.44
2022-12-04T19:45:33.867Z,26.42
2022-12-04T19:48:04.539Z,26.39
2022-12-04T19:50:35.641Z,26.40
2022-12-04T19:53:06.489Z,26.37
2022-12-04T19:55:39.782Z,26.38
2022-12-04T19:58:11.791Z,26.36
2022-12-04T20:00:42.187Z,26.35
2022-12-04T20:03:12.807Z,26.35
2022-12-04T20:05:44.169Z,26.35
2022-12-04T20:08:14.700Z,26.32
2022-12-04T20:10:45.018Z,26.31
2022-12-04T20:13:16.712Z,26.31
2022-12-04T20:15:47.475Z,26.30
2022-12-04T20:18:18.467Z,26.28
2022-12-04T20:21:01.088Z,26.28
2022-12-04T20:23:31.891Z,26.26
2022-12-04T20:26:08.140Z,26.26
2022-12-04T20:28:40.412Z,26.25
2022-12-04T20:31:23.587Z,26.25
2022-12-04T20:33:57.127Z,26.23
2022-12-04T20:36:30.170Z,26.22
2022-12-04T20:39:01.135Z,26.21
2022-12-04T20:41:33.722Z,26.18
2022-12-04T20:44:09.379Z,26.17
2022-12-04T20:46:43.302Z,26.15
2022-12-04T20:49:21.737Z,26.12
2022-12-04T20:51:54.219Z,26.09
2022-12-04T20:54:25.212Z,26.08
2022-12-04T20:56:56.710Z,26.07
2022-12-04T20:59:28.396Z,26.05
2022-12-04T21:01:59.844Z,26.04
2022-12-04T21:04:30.518Z,26.02
2022-12-04T21:07:01.350Z,26.01
2022-12-04T21:09:31.347Z,26.02
2022-12-04T21:12:02.597Z,26.01
2022-12-04T21:15:06.094Z,26.00
2022-12-04T21:17:39.352Z,25.97
2022-12-04T21:20:12.087Z,25.97
2022-12-04T21:22:42.904Z,25.96
2022-12-04T21:25:13.670Z,25.96
2022-12-04T21:27:44.883Z,25.96
2022-12-04T21:30:18.287Z,25.94
2022-12-04T21:32:48.291Z,25.94
2022-12-04T21:35:18.883Z,25.93
2022-12-04T21:37:49.301Z,25.92
2022-12-04T21:40:19.254Z,25.91
2022-12-04T21:42:49.773Z,25.91
2022-12-04T21:45:22.376Z,25.91
2022-12-04T21:47:53.383Z,25.90
2022-12-04T21:50:24.034Z,25.88
2022-12-04T21:52:56.592Z,25.85
2022-12-04T21:55:27.189Z,25.81
2022-12-04T21:57:57.725Z,25.77
2022-12-04T22:00:30.145Z,25.75
2022-12-04T22:03:00.867Z,25.72
2022-12-04T22:05:33.763Z,25.71
2022-12-04T22:08:04.381Z,25.68
2022-12-04T22:10:34.663Z,25.68
2022-12-04T22:13:04.355Z,25.67
2022-12-04T22:15:41.347Z,25.66
2022-12-04T22:18:12.878Z,25.65
2022-12-04T22:20:45.545Z,25.66
2022-12-04T22:23:16.064Z,25.65
2022-12-04T22:25:50.098Z,25.65
2022-12-04T22:28:20.655Z,25.64
2022-12-04T22:30:53.346Z,25.66
2022-12-04T22:33:23.381Z,25.65
2022-12-04T22:35:58.336Z,25.62
2022-12-04T22:38:28.798Z,25.59
2022-12-04T22:41:02.949Z,25.58
2022-12-04T22:43:40.511Z,25.54
2022-12-04T22:46:15.455Z,25.51
2022-12-04T22:48:46.692Z,25.49
2022-12-04T22:51:20.298Z,25.45
2022-12-04T22:53:53.487Z,25.42
2022-12-04T22:56:26.964Z,25.39
2022-12-04T22:58:58.523Z,25.36
2022-12-04T23:01:33.889Z,25.35
2022-12-04T23:04:06.796Z,25.34
2022-12-04T23:06:37.846Z,25.32
2022-12-04T23:09:13.627Z,25.32
2022-12-04T23:11:44.948Z,25.29
2022-12-04T23:14:17.330Z,25.29
2022-12-04T23:16:50.863Z,25.28
2022-12-04T23:19:22.558Z,25.28
2022-12-04T23:21:56.951Z,25.26
2022-12-04T23:24:28.598Z,25.26
2022-12-04T23:26:59.075Z,25.24
2022-12-04T23:29:52.117Z,25.22
2022-12-04T23:32:21.565Z,25.18
2022-12-04T23:34:53.503Z,25.15
2022-12-04T23:37:24.139Z,25.13
2022-12-04T23:39:54.373Z,25.11
2022-12-04T23:42:24.891Z,25.08
2022-12-04T23:44:55.455Z,25.08
2022-12-04T23:47:27.574Z,25.07
2022-12-04T23:49:57.836Z,25.06
2022-12-04T23:52:28.118Z,25.06
2022-12-04T23:54:59.041Z,25.08
2022-12-04T23:57:31.962Z,25.08
